sensor_id;sensor_type;location;lat;lon;timestamp;pressure;altitude;pressure_sealevel;temperature;humidity
54806;BME280;62866;55.776;37.496;2024-03-23T00:53:44;98864.38;;;3.54;69.81
54806;BME280;62866;55.776;37.496;2024-03-23T00:56:10;98859.09;;;3.54;70.12
54806;BME280;62866;55.776;37.496;2024-03-23T00:58:35;98844.41;;;3.51;69.54
54806;BME280;62866;55.776;37.496;2024-03-23T01:01:00;98828.88;;;3.48;70.31
54806;BME280;62866;55.776;37.496;2024-03-23T01:03:28;98836.28;;;3.61;70.19
54806;BME280;62866;55.776;37.496;2024-03-23T01:05:54;98832.50;;;3.55;70.08
54806;BME280;62866;55.776;37.496;2024-03-23T01:08:19;98843.22;;;3.54;70.56
54806;BME280;62866;55.776;37.496;2024-03-23T01:10:57;98832.19;;;3.50;70.75
54806;BME280;62866;55.776;37.496;2024-03-23T01:13:22;98835.47;;;3.44;71.04
54806;BME280;62866;55.776;37.496;2024-03-23T01:15:52;98832.19;;;3.50;70.91
54806;BME280;62866;55.776;37.496;2024-03-23T01:18:19;98826.41;;;3.47;71.22
54806;BME280;62866;55.776;37.496;2024-03-23T01:20:45;98816.81;;;3.46;71.25
54806;BME280;62866;55.776;37.496;2024-03-23T01:23:11;98821.25;;;3.53;71.05
54806;BME280;62866;55.776;37.496;2024-03-23T01:25:36;98829.03;;;3.63;71.41
54806;BME280;62866;55.776;37.496;2024-03-23T01:28:02;98816.13;;;3.52;72.57
54806;BME280;62866;55.776;37.496;2024-03-23T01:30:28;98801.78;;;3.46;72.11
54806;BME280;62866;55.776;37.496;2024-03-23T01:32:53;98809.41;;;3.49;72.09
54806;BME280;62866;55.776;37.496;2024-03-23T01:35:19;98807.91;;;3.47;72.42
54806;BME280;62866;55.776;37.496;2024-03-23T01:37:44;98801.63;;;3.48;71.96
54806;BME280;62866;55.776;37.496;2024-03-23T01:40:10;98799.97;;;3.55;71.98
54806;BME280;62866;55.776;37.496;2024-03-23T01:42:36;98793.53;;;3.57;72.29
54806;BME280;62866;55.776;37.496;2024-03-23T01:45:01;98784.63;;;3.50;72.16
54806;BME280;62866;55.776;37.496;2024-03-23T01:47:27;98793.38;;;3.51;73.28
54806;BME280;62866;55.776;37.496;2024-03-23T01:49:52;98785.44;;;3.59;72.45
54806;BME280;62866;55.776;37.496;2024-03-23T01:52:18;98783.78;;;3.58;72.84
54806;BME280;62866;55.776;37.496;2024-03-23T01:54:44;98779.81;;;3.54;73.19
54806;BME280;62866;55.776;37.496;2024-03-23T01:57:10;98772.53;;;3.56;72.88
54806;BME280;62866;55.776;37.496;2024-03-23T01:59:35;98767.25;;;3.56;73.02
54806;BME280;62866;55.776;37.496;2024-03-23T02:02:01;98769.22;;;3.62;72.88
54806;BME280;62866;55.776;37.496;2024-03-23T02:04:26;98754.19;;;3.62;73.29
54806;BME280;62866;55.776;37.496;2024-03-23T02:06:52;98758.31;;;3.65;73.06
54806;BME280;62866;55.776;37.496;2024-03-23T02:09:17;98745.94;;;3.65;73.11
54806;BME280;62866;55.776;37.496;2024-03-23T02:11:43;98748.91;;;3.62;73.21
54806;BME280;62866;55.776;37.496;2024-03-23T02:14:08;98736.88;;;3.60;73.50
54806;BME280;62866;55.776;37.496;2024-03-23T02:16:34;98741.31;;;3.67;73.47
54806;BME280;62866;55.776;37.496;2024-03-23T02:18:59;98732.38;;;3.60;73.51
54806;BME280;62866;55.776;37.496;2024-03-23T02:21:25;98731.09;;;3.56;74.14
54806;BME280;62866;55.776;37.496;2024-03-23T02:23:52;98725.13;;;3.54;73.93
54806;BME280;62866;55.776;37.496;2024-03-23T02:26:18;98727.59;;;3.64;74.08
54806;BME280;62866;55.776;37.496;2024-03-23T02:28:43;98718.00;;;3.63;74.54
54806;BME280;62866;55.776;37.496;2024-03-23T02:31:09;98719.97;;;3.69;73.73
54806;BME280;62866;55.776;37.496;2024-03-23T02:33:34;98704.47;;;3.66;74.74
54806;BME280;62866;55.776;37.496;2024-03-23T02:36:03;98705.16;;;3.60;75.10
54806;BME280;62866;55.776;37.496;2024-03-23T02:38:29;98700.66;;;3.60;74.79
54806;BME280;62866;55.776;37.496;2024-03-23T02:40:54;98693.25;;;3.56;75.15
54806;BME280;62866;55.776;37.496;2024-03-23T02:43:20;98682.84;;;3.54;75.47
54806;BME280;62866;55.776;37.496;2024-03-23T02:45:45;98678.72;;;3.60;75.04
54806;BME280;62866;55.776;37.496;2024-03-23T02:48:11;98680.97;;;3.71;75.08
54806;BME280;62866;55.776;37.496;2024-03-23T02:50:36;98670.75;;;3.68;74.90
54806;BME280;62866;55.776;37.496;2024-03-23T02:53:02;98655.94;;;3.59;75.73
54806;BME280;62866;55.776;37.496;2024-03-23T02:55:27;98665.97;;;3.63;75.33
54806;BME280;62866;55.776;37.496;2024-03-23T02:57:53;98660.19;;;3.68;76.28
54806;BME280;62866;55.776;37.496;2024-03-23T03:00:18;98651.28;;;3.61;76.04
54806;BME280;62866;55.776;37.496;2024-03-23T03:02:44;98656.09;;;3.57;75.69
54806;BME280;62866;55.776;37.496;2024-03-23T03:05:09;98647.00;;;3.60;76.22
54806;BME280;62866;55.776;37.496;2024-03-23T03:07:36;98652.75;;;3.63;76.31
54806;BME280;62866;55.776;37.496;2024-03-23T03:10:04;98645.16;;;3.60;76.27
54806;BME280;62866;55.776;37.496;2024-03-23T03:12:31;98646.34;;;3.58;76.88
54806;BME280;62866;55.776;37.496;2024-03-23T03:14:57;98640.41;;;3.56;76.70
54806;BME280;62866;55.776;37.496;2024-03-23T03:17:22;98635.81;;;3.50;77.46
54806;BME280;62866;55.776;37.496;2024-03-23T03:19:48;98639.28;;;3.50;77.24
54806;BME280;62866;55.776;37.496;2024-03-23T03:22:14;98623.88;;;3.54;77.48
54806;BME280;62866;55.776;37.496;2024-03-23T03:24:39;98626.19;;;3.57;76.94
54806;BME280;62866;55.776;37.496;2024-03-23T03:27:05;98627.53;;;3.53;76.95
54806;BME280;62866;55.776;37.496;2024-03-23T03:29:32;98610.56;;;3.47;77.08
54806;BME280;62866;55.776;37.496;2024-03-23T03:32:01;98618.78;;;3.52;78.36
54806;BME280;62866;55.776;37.496;2024-03-23T03:34:27;98604.59;;;3.45;77.82
54806;BME280;62866;55.776;37.496;2024-03-23T03:36:52;98609.38;;;3.50;77.76
54806;BME280;62866;55.776;37.496;2024-03-23T03:39:18;98596.84;;;3.43;77.89
54806;BME280;62866;55.776;37.496;2024-03-23T03:41:43;98599.00;;;3.48;78.30
54806;BME280;62866;55.776;37.496;2024-03-23T03:44:09;98588.59;;;3.47;78.10
54806;BME280;62866;55.776;37.496;2024-03-23T03:46:34;98587.88;;;3.53;78.09
54806;BME280;62866;55.776;37.496;2024-03-23T03:48:59;98581.28;;;3.57;78.14
54806;BME280;62866;55.776;37.496;2024-03-23T03:51:25;98571.56;;;3.49;77.67
54806;BME280;62866;55.776;37.496;2024-03-23T03:53:50;98577.94;;;3.63;77.69
54806;BME280;62866;55.776;37.496;2024-03-23T03:56:16;98568.19;;;3.63;78.21
54806;BME280;62866;55.776;37.496;2024-03-23T03:58:41;98556.78;;;3.63;77.70
54806;BME280;62866;55.776;37.496;2024-03-23T04:01:07;98567.03;;;3.66;78.41
54806;BME280;62866;55.776;37.496;2024-03-23T04:03:32;98562.38;;;3.68;78.12
54806;BME280;62866;55.776;37.496;2024-03-23T04:05:58;98553.75;;;3.74;77.81
54806;BME280;62866;55.776;37.496;2024-03-23T04:08:24;98554.69;;;3.81;77.76
54806;BME280;62866;55.776;37.496;2024-03-23T04:10:49;98549.34;;;3.89;77.54
54806;BME280;62866;55.776;37.496;2024-03-23T04:13:15;98538.66;;;3.83;77.31
54806;BME280;62866;55.776;37.496;2024-03-23T04:15:41;98543.56;;;3.86;77.32
54806;BME280;62866;55.776;37.496;2024-03-23T04:18:07;98541.97;;;3.85;77.50
54806;BME280;62866;55.776;37.496;2024-03-23T04:20:32;98546.00;;;3.95;77.44
54806;BME280;62866;55.776;37.496;2024-03-23T04:23:01;98534.13;;;3.91;78.39
54806;BME280;62866;55.776;37.496;2024-03-23T04:25:26;98542.41;;;3.88;77.93
54806;BME280;62866;55.776;37.496;2024-03-23T04:27:52;98535.78;;;3.92;78.12
54806;BME280;62866;55.776;37.496;2024-03-23T04:30:17;98532.34;;;4.06;77.55
54806;BME280;62866;55.776;37.496;2024-03-23T04:32:43;98527.25;;;4.05;77.62
54806;BME280;62866;55.776;37.496;2024-03-23T04:35:09;98506.72;;;4.07;77.77
54806;BME280;62866;55.776;37.496;2024-03-23T04:37:38;98528.28;;;4.18;77.29
54806;BME280;62866;55.776;37.496;2024-03-23T04:40:07;98519.25;;;4.28;77.54
54806;BME280;62866;55.776;37.496;2024-03-23T04:42:33;98515.91;;;4.34;77.26
54806;BME280;62866;55.776;37.496;2024-03-23T04:44:59;98511.25;;;4.36;76.64
54806;BME280;62866;55.776;37.496;2024-03-23T04:47:24;98487.50;;;4.28;76.75
54806;BME280;62866;55.776;37.496;2024-03-23T04:49:50;98504.50;;;4.33;76.85
54806;BME280;62866;55.776;37.496;2024-03-23T04:52:18;98495.66;;;4.26;78.20
54806;BME280;62866;55.776;37.496;2024-03-23T04:54:44;98487.31;;;4.14;77.95
54806;BME280;62866;55.776;37.496;2024-03-23T04:57:10;98503.53;;;4.11;78.09
54806;BME280;62866;55.776;37.496;2024-03-23T04:59:36;98478.81;;;4.04;78.71
54806;BME280;62866;55.776;37.496;2024-03-23T05:02:02;98480.03;;;4.16;78.97
54806;BME280;62866;55.776;37.496;2024-03-23T05:04:28;98474.66;;;4.10;78.57
54806;BME280;62866;55.776;37.496;2024-03-23T05:06:53;98489.41;;;4.19;79.55
54806;BME280;62866;55.776;37.496;2024-03-23T05:09:19;98485.69;;;4.13;79.23
54806;BME280;62866;55.776;37.496;2024-03-23T05:11:45;98475.66;;;4.09;79.56
54806;BME280;62866;55.776;37.496;2024-03-23T05:14:14;98477.47;;;4.08;79.13
54806;BME280;62866;55.776;37.496;2024-03-23T05:16:40;98490.38;;;4.03;79.32
54806;BME280;62866;55.776;37.496;2024-03-23T05:19:06;98478.81;;;4.04;79.36
54806;BME280;62866;55.776;37.496;2024-03-23T05:21:31;98478.09;;;4.10;79.55
54806;BME280;62866;55.776;37.496;2024-03-23T05:23:57;98464.25;;;4.08;80.02
54806;BME280;62866;55.776;37.496;2024-03-23T05:26:22;98466.16;;;4.14;79.85
54806;BME280;62866;55.776;37.496;2024-03-23T05:28:48;98456.84;;;4.18;80.98
54806;BME280;62866;55.776;37.496;2024-03-23T05:31:25;98453.50;;;4.10;80.65
54806;BME280;62866;55.776;37.496;2024-03-23T05:33:50;98453.75;;;4.15;80.27
54806;BME280;62866;55.776;37.496;2024-03-23T05:36:17;98447.00;;;4.12;80.94
54806;BME280;62866;55.776;37.496;2024-03-23T05:38:42;98444.53;;;4.11;80.42
54806;BME280;62866;55.776;37.496;2024-03-23T05:41:08;98451.19;;;4.07;81.88
54806;BME280;62866;55.776;37.496;2024-03-23T05:43:33;98443.59;;;4.04;82.36
54806;BME280;62866;55.776;37.496;2024-03-23T05:46:00;98447.44;;;4.01;81.60
54806;BME280;62866;55.776;37.496;2024-03-23T05:48:26;98444.72;;;4.09;82.02
54806;BME280;62866;55.776;37.496;2024-03-23T05:50:53;98438.41;;;4.10;81.62
54806;BME280;62866;55.776;37.496;2024-03-23T05:53:19;98436.72;;;4.17;81.50
54806;BME280;62866;55.776;37.496;2024-03-23T05:55:46;98433.78;;;4.12;82.14
54806;BME280;62866;55.776;37.496;2024-03-23T05:58:17;98438.63;;;4.09;82.66
54806;BME280;62866;55.776;37.496;2024-03-23T06:00:46;98424.09;;;4.05;82.37
54806;BME280;62866;55.776;37.496;2024-03-23T06:03:12;98438.63;;;4.09;82.80
54806;BME280;62866;55.776;37.496;2024-03-23T06:05:38;98436.66;;;4.03;82.88
54806;BME280;62866;55.776;37.496;2024-03-23T06:08:04;98429.63;;;3.95;83.32
54806;BME280;62866;55.776;37.496;2024-03-23T06:10:30;98424.91;;;4.05;83.08
54806;BME280;62866;55.776;37.496;2024-03-23T06:12:56;98414.81;;;4.09;83.34
54806;BME280;62866;55.776;37.496;2024-03-23T06:15:22;98417.47;;;4.09;83.21
54806;BME280;62866;55.776;37.496;2024-03-23T06:17:48;98416.81;;;4.07;83.33
54806;BME280;62866;55.776;37.496;2024-03-23T06:20:14;98414.16;;;4.07;83.53
54806;BME280;62866;55.776;37.496;2024-03-23T06:22:40;98416.06;;;4.13;83.86
54806;BME280;62866;55.776;37.496;2024-03-23T06:25:06;98416.00;;;4.21;83.77
54806;BME280;62866;55.776;37.496;2024-03-23T06:27:32;98418.38;;;4.16;83.74
54806;BME280;62866;55.776;37.496;2024-03-23T06:30:00;98404.16;;;4.32;84.11
54806;BME280;62866;55.776;37.496;2024-03-23T06:32:27;98410.34;;;4.24;84.38
54806;BME280;62866;55.776;37.496;2024-03-23T06:34:54;98403.69;;;4.28;84.59
54806;BME280;62866;55.776;37.496;2024-03-23T06:37:19;98403.41;;;4.23;84.99
54806;BME280;62866;55.776;37.496;2024-03-23T06:39:45;98403.31;;;4.16;84.89
54806;BME280;62866;55.776;37.496;2024-03-23T06:42:11;98397.47;;;4.21;85.41
54806;BME280;62866;55.776;37.496;2024-03-23T06:44:36;98390.81;;;4.10;85.23
54806;BME280;62866;55.776;37.496;2024-03-23T06:47:02;98376.31;;;4.06;85.24
54806;BME280;62866;55.776;37.496;2024-03-23T06:49:28;98383.69;;;4.11;85.70
54806;BME280;62866;55.776;37.496;2024-03-23T06:51:53;98386.81;;;4.14;85.26
54806;BME280;62866;55.776;37.496;2024-03-23T06:54:19;98377.31;;;4.20;85.35
54806;BME280;62866;55.776;37.496;2024-03-23T06:56:45;98379.34;;;4.33;84.93
54806;BME280;62866;55.776;37.496;2024-03-23T06:59:10;98390.91;;;4.32;85.64
54806;BME280;62866;55.776;37.496;2024-03-23T07:01:36;98376.31;;;4.36;85.52
54806;BME280;62866;55.776;37.496;2024-03-23T07:04:01;98373.41;;;4.31;85.83
54806;BME280;62866;55.776;37.496;2024-03-23T07:06:27;98375.50;;;4.20;86.34
54806;BME280;62866;55.776;37.496;2024-03-23T07:08:53;98360.34;;;4.14;86.53
54806;BME280;62866;55.776;37.496;2024-03-23T07:11:22;98368.47;;;4.13;86.58
54806;BME280;62866;55.776;37.496;2024-03-23T07:13:51;98347.78;;;4.16;86.28
54806;BME280;62866;55.776;37.496;2024-03-23T07:16:17;98365.63;;;4.29;86.36
54806;BME280;62866;55.776;37.496;2024-03-23T07:18:43;98364.56;;;4.24;86.65
54806;BME280;62866;55.776;37.496;2024-03-23T07:21:09;98369.19;;;4.22;86.37
54806;BME280;62866;55.776;37.496;2024-03-23T07:23:34;98352.16;;;4.09;86.72
54806;BME280;62866;55.776;37.496;2024-03-23T07:26:02;98356.06;;;4.13;87.61
54806;BME280;62866;55.776;37.496;2024-03-23T07:28:28;98354.72;;;4.17;87.48
54806;BME280;62866;55.776;37.496;2024-03-23T07:31:05;98360.44;;;4.21;87.01
54806;BME280;62866;55.776;37.496;2024-03-23T07:33:31;98357.06;;;4.27;87.77
54806;BME280;62866;55.776;37.496;2024-03-23T07:35:57;98354.31;;;4.20;87.20
54806;BME280;62866;55.776;37.496;2024-03-23T07:38:23;98347.13;;;4.29;87.24
54806;BME280;62866;55.776;37.496;2024-03-23T07:40:48;98332.44;;;4.27;87.17
54806;BME280;62866;55.776;37.496;2024-03-23T07:43:19;98349.31;;;4.40;87.85
54806;BME280;62866;55.776;37.496;2024-03-23T07:45:51;98352.66;;;4.49;87.42
54806;BME280;62866;55.776;37.496;2024-03-23T07:48:17;98344.66;;;4.42;87.46
54806;BME280;62866;55.776;37.496;2024-03-23T07:50:42;98349.38;;;4.47;88.14
54806;BME280;62866;55.776;37.496;2024-03-23T07:53:08;98334.50;;;4.46;87.81
54806;BME280;62866;55.776;37.496;2024-03-23T07:55:33;98351.75;;;4.56;87.71
54806;BME280;62866;55.776;37.496;2024-03-23T07:57:59;98329.50;;;4.51;87.48
54806;BME280;62866;55.776;37.496;2024-03-23T08:00:24;98347.16;;;4.65;87.38
54806;BME280;62866;55.776;37.496;2024-03-23T08:02:51;98351.38;;;4.60;87.92
54806;BME280;62866;55.776;37.496;2024-03-23T08:05:17;98332.56;;;4.54;87.70
54806;BME280;62866;55.776;37.496;2024-03-23T08:07:42;98332.75;;;4.53;87.92
54806;BME280;62866;55.776;37.496;2024-03-23T08:10:07;98316.81;;;4.46;88.58
54806;BME280;62866;55.776;37.496;2024-03-23T08:12:33;98321.50;;;4.66;88.43
54806;BME280;62866;55.776;37.496;2024-03-23T08:14:58;98323.34;;;4.65;88.07
54806;BME280;62866;55.776;37.496;2024-03-23T08:17:24;98310.28;;;4.64;88.56
54806;BME280;62866;55.776;37.496;2024-03-23T08:19:50;98325.69;;;4.75;87.77
54806;BME280;62866;55.776;37.496;2024-03-23T08:22:17;98279.41;;;4.49;87.59
54806;BME280;62866;55.776;37.496;2024-03-23T08:24:43;98317.34;;;4.78;87.97
54806;BME280;62866;55.776;37.496;2024-03-23T08:27:08;98302.63;;;4.90;88.63
54806;BME280;62866;55.776;37.496;2024-03-23T08:29:34;98309.28;;;4.86;88.51
54806;BME280;62866;55.776;37.496;2024-03-23T08:31:59;98316.81;;;4.82;88.72
54806;BME280;62866;55.776;37.496;2024-03-23T08:34:26;98311.69;;;4.81;88.32
54806;BME280;62866;55.776;37.496;2024-03-23T08:36:51;98316.31;;;4.93;88.35
54806;BME280;62866;55.776;37.496;2024-03-23T08:39:17;98316.69;;;4.90;87.88
54806;BME280;62866;55.776;37.496;2024-03-23T08:41:42;98292.91;;;4.76;88.57
54806;BME280;62866;55.776;37.496;2024-03-23T08:44:11;98308.09;;;4.67;88.42
54806;BME280;62866;55.776;37.496;2024-03-23T08:46:36;98301.34;;;4.65;88.84
54806;BME280;62866;55.776;37.496;2024-03-23T08:49:02;98305.06;;;4.70;88.69
54806;BME280;62866;55.776;37.496;2024-03-23T08:51:27;98282.81;;;4.65;88.53
54806;BME280;62866;55.776;37.496;2024-03-23T08:53:53;98285.41;;;4.79;88.82
54806;BME280;62866;55.776;37.496;2024-03-23T08:56:18;98296.16;;;4.78;88.31
54806;BME280;62866;55.776;37.496;2024-03-23T08:58:45;98291.50;;;4.80;88.39
54806;BME280;62866;55.776;37.496;2024-03-23T09:01:12;98296.06;;;4.86;88.23
54806;BME280;62866;55.776;37.496;2024-03-23T09:03:40;98277.28;;;4.81;87.74
54806;BME280;62866;55.776;37.496;2024-03-23T09:06:07;98274.81;;;4.79;87.93
54806;BME280;62866;55.776;37.496;2024-03-23T09:08:34;98288.69;;;4.81;88.14
54806;BME280;62866;55.776;37.496;2024-03-23T09:11:05;98290.22;;;4.90;87.86
54806;BME280;62866;55.776;37.496;2024-03-23T09:13:37;98256.53;;;4.84;87.82
54806;BME280;62866;55.776;37.496;2024-03-23T09:16:12;98276.16;;;4.90;87.95
54806;BME280;62866;55.776;37.496;2024-03-23T09:18:43;98236.69;;;4.74;88.66
54806;BME280;62866;55.776;37.496;2024-03-23T09:21:13;98252.25;;;4.83;88.71
54806;BME280;62866;55.776;37.496;2024-03-23T09:23:40;98279.44;;;4.92;88.34
54806;BME280;62866;55.776;37.496;2024-03-23T09:26:05;98270.91;;;4.96;88.37
54806;BME280;62866;55.776;37.496;2024-03-23T09:28:34;98261.50;;;4.94;88.48
54806;BME280;62866;55.776;37.496;2024-03-23T09:31:06;98268.72;;;5.00;88.20
54806;BME280;62866;55.776;37.496;2024-03-23T09:33:33;98266.56;;;5.10;88.19
54806;BME280;62866;55.776;37.496;2024-03-23T09:36:03;98246.59;;;5.14;87.97
54806;BME280;62866;55.776;37.496;2024-03-23T09:38:29;98233.06;;;5.03;87.92
54806;BME280;62866;55.776;37.496;2024-03-23T09:40:54;98246.38;;;5.09;88.18
54806;BME280;62866;55.776;37.496;2024-03-23T09:43:20;98261.53;;;5.22;87.84
54806;BME280;62866;55.776;37.496;2024-03-23T09:45:46;98255.28;;;5.29;87.21
54806;BME280;62866;55.776;37.496;2024-03-23T09:48:15;98264.31;;;5.35;87.49
54806;BME280;62866;55.776;37.496;2024-03-23T09:50:41;98249.47;;;5.41;87.03
54806;BME280;62866;55.776;37.496;2024-03-23T09:53:09;98250.97;;;5.50;87.03
54806;BME280;62866;55.776;37.496;2024-03-23T09:55:37;98247.00;;;5.39;86.43
54806;BME280;62866;55.776;37.496;2024-03-23T09:58:03;98247.03;;;5.46;86.71
54806;BME280;62866;55.776;37.496;2024-03-23T10:00:36;98246.03;;;5.47;86.75
54806;BME280;62866;55.776;37.496;2024-03-23T10:03:01;98245.31;;;5.59;86.37
54806;BME280;62866;55.776;37.496;2024-03-23T10:05:28;98241.84;;;5.59;85.77
54806;BME280;62866;55.776;37.496;2024-03-23T10:07:54;98221.94;;;5.42;86.16
54806;BME280;62866;55.776;37.496;2024-03-23T10:10:20;98253.00;;;5.54;86.35
54806;BME280;62866;55.776;37.496;2024-03-23T10:12:49;98248.16;;;5.58;86.25
54806;BME280;62866;55.776;37.496;2024-03-23T10:15:23;98245.69;;;5.56;86.63
54806;BME280;62866;55.776;37.496;2024-03-23T10:17:52;98241.44;;;5.62;86.23
54806;BME280;62866;55.776;37.496;2024-03-23T10:20:22;98232.31;;;5.71;86.47
54806;BME280;62866;55.776;37.496;2024-03-23T10:22:50;98231.97;;;5.81;86.21
54806;BME280;62866;55.776;37.496;2024-03-23T10:25:25;98234.41;;;5.76;85.93
54806;BME280;62866;55.776;37.496;2024-03-23T10:28:00;98224.19;;;5.79;86.25
54806;BME280;62866;55.776;37.496;2024-03-23T10:30:27;98237.97;;;5.89;85.73
54806;BME280;62866;55.776;37.496;2024-03-23T10:33:12;98226.38;;;5.97;85.38
54806;BME280;62866;55.776;37.496;2024-03-23T10:35:38;98226.34;;;5.90;85.20
54806;BME280;62866;55.776;37.496;2024-03-23T10:38:05;98220.66;;;6.00;84.81
54806;BME280;62866;55.776;37.496;2024-03-23T10:40:34;98225.19;;;6.13;84.87
54806;BME280;62866;55.776;37.496;2024-03-23T10:43:00;98192.50;;;5.99;84.30
54806;BME280;62866;55.776;37.496;2024-03-23T10:45:27;98207.63;;;6.12;84.39
54806;BME280;62866;55.776;37.496;2024-03-23T10:47:55;98220.09;;;6.11;84.90
54806;BME280;62866;55.776;37.496;2024-03-23T10:50:22;98224.63;;;6.24;84.67
54806;BME280;62866;55.776;37.496;2024-03-23T10:52:55;98202.41;;;6.25;84.75
54806;BME280;62866;55.776;37.496;2024-03-23T10:55:24;98226.47;;;6.23;84.55
54806;BME280;62866;55.776;37.496;2024-03-23T10:57:55;98224.81;;;6.16;85.19
54806;BME280;62866;55.776;37.496;2024-03-23T11:00:22;98225.25;;;6.19;85.35
54806;BME280;62866;55.776;37.496;2024-03-23T11:02:51;98219.50;;;6.16;84.79
54806;BME280;62866;55.776;37.496;2024-03-23T11:07:52;98214.75;;;6.04;84.88
54806;BME280;62866;55.776;37.496;2024-03-23T11:10:43;98211.53;;;6.16;85.07
54806;BME280;62866;55.776;37.496;2024-03-23T11:13:22;98204.22;;;6.18;84.22
54806;BME280;62866;55.776;37.496;2024-03-23T11:15:47;98218.69;;;6.15;84.03
54806;BME280;62866;55.776;37.496;2024-03-23T11:18:20;98202.59;;;6.23;84.59
54806;BME280;62866;55.776;37.496;2024-03-23T11:20:49;98155.19;;;6.14;84.18
54806;BME280;62866;55.776;37.496;2024-03-23T11:23:32;98198.78;;;6.52;83.57
54806;BME280;62866;55.776;37.496;2024-03-23T11:26:01;98192.25;;;6.55;83.08
54806;BME280;62866;55.776;37.496;2024-03-23T11:28:26;98194.28;;;6.46;82.65
54806;BME280;62866;55.776;37.496;2024-03-23T11:30:52;98200.00;;;6.50;82.93
54806;BME280;62866;55.776;37.496;2024-03-23T11:33:17;98190.59;;;6.47;82.58
54806;BME280;62866;55.776;37.496;2024-03-23T11:35:46;98199.56;;;6.39;83.03
54806;BME280;62866;55.776;37.496;2024-03-23T11:38:15;98198.75;;;6.32;83.14
54806;BME280;62866;55.776;37.496;2024-03-23T11:40:47;98196.09;;;6.32;83.58
54806;BME280;62866;55.776;37.496;2024-03-23T11:43:18;98177.69;;;6.24;83.11
54806;BME280;62866;55.776;37.496;2024-03-23T11:48:17;98196.38;;;6.03;84.29
54806;BME280;62866;55.776;37.496;2024-03-23T11:50:46;98192.50;;;5.99;83.91
54806;BME280;62866;55.776;37.496;2024-03-23T11:55:45;98178.22;;;5.93;84.11
54806;BME280;62866;55.776;37.496;2024-03-23T11:58:11;98189.84;;;5.92;84.31
54806;BME280;62866;55.776;37.496;2024-03-23T12:00:40;98183.66;;;5.85;84.62
54806;BME280;62866;55.776;37.496;2024-03-23T12:03:07;98185.53;;;5.91;84.28
54806;BME280;62866;55.776;37.496;2024-03-23T12:05:33;98181.25;;;5.90;84.25
54806;BME280;62866;55.776;37.496;2024-03-23T12:08:38;98185.56;;;5.98;85.07
54806;BME280;62866;55.776;37.496;2024-03-23T12:11:11;98184.09;;;5.95;84.55
54806;BME280;62866;55.776;37.496;2024-03-23T12:13:38;98187.13;;;5.86;84.73
54806;BME280;62866;55.776;37.496;2024-03-23T12:18:40;98190.97;;;5.77;85.61
54806;BME280;62866;55.776;37.496;2024-03-23T12:21:08;98187.25;;;5.78;85.88
54806;BME280;62866;55.776;37.496;2024-03-23T12:23:34;98172.41;;;5.77;86.07
54806;BME280;62866;55.776;37.496;2024-03-23T12:25:59;98174.59;;;5.66;85.71
54806;BME280;62866;55.776;37.496;2024-03-23T12:28:25;98181.34;;;5.76;86.40
54806;BME280;62866;55.776;37.496;2024-03-23T12:30:51;98172.56;;;5.68;85.89
54806;BME280;62866;55.776;37.496;2024-03-23T12:33:20;98174.78;;;5.71;86.58
54806;BME280;62866;55.776;37.496;2024-03-23T12:35:47;98181.13;;;5.70;86.14
54806;BME280;62866;55.776;37.496;2024-03-23T12:38:12;98182.56;;;5.73;86.88
54806;BME280;62866;55.776;37.496;2024-03-23T12:40:38;98183.22;;;5.82;86.54
54806;BME280;62866;55.776;37.496;2024-03-23T12:43:03;98174.59;;;5.73;86.25
54806;BME280;62866;55.776;37.496;2024-03-23T12:45:29;98173.44;;;5.82;86.15
54806;BME280;62866;55.776;37.496;2024-03-23T12:47:54;98178.09;;;5.80;86.00
54806;BME280;62866;55.776;37.496;2024-03-23T12:50:21;98174.88;;;5.85;85.96
54806;BME280;62866;55.776;37.496;2024-03-23T12:52:47;98165.47;;;5.82;86.17
54806;BME280;62866;55.776;37.496;2024-03-23T12:55:13;98164.66;;;5.82;85.95
54806;BME280;62866;55.776;37.496;2024-03-23T12:57:38;98174.44;;;5.81;86.40
54806;BME280;62866;55.776;37.496;2024-03-23T13:00:06;98167.69;;;5.79;86.45
54806;BME280;62866;55.776;37.496;2024-03-23T13:02:32;98170.44;;;5.92;86.47
54806;BME280;62866;55.776;37.496;2024-03-23T13:05:00;98154.09;;;5.88;85.98
54806;BME280;62866;55.776;37.496;2024-03-23T13:07:25;98172.81;;;5.87;86.60
54806;BME280;62866;55.776;37.496;2024-03-23T13:09:52;98174.81;;;5.78;86.39
54806;BME280;62866;55.776;37.496;2024-03-23T13:12:22;98170.50;;;5.70;86.53
54806;BME280;62866;55.776;37.496;2024-03-23T13:14:47;98165.44;;;5.76;86.59
54806;BME280;62866;55.776;37.496;2024-03-23T13:17:13;98167.28;;;5.75;86.29
54806;BME280;62866;55.776;37.496;2024-03-23T13:19:41;98174.59;;;5.73;86.66
54806;BME280;62866;55.776;37.496;2024-03-23T13:22:09;98138.28;;;5.67;86.59
54806;BME280;62866;55.776;37.496;2024-03-23T13:24:37;98139.94;;;5.75;86.59
54806;BME280;62866;55.776;37.496;2024-03-23T13:27:05;98157.94;;;5.86;86.35
54806;BME280;62866;55.776;37.496;2024-03-23T13:29:33;98173.31;;;5.97;86.10
54806;BME280;62866;55.776;37.496;2024-03-23T13:32:00;98159.25;;;6.03;85.98
54806;BME280;62866;55.776;37.496;2024-03-23T13:34:25;98167.94;;;5.84;85.95
54806;BME280;62866;55.776;37.496;2024-03-23T13:36:51;98159.31;;;5.75;86.46
54806;BME280;62866;55.776;37.496;2024-03-23T13:39:20;98140.91;;;5.60;86.57
54806;BME280;62866;55.776;37.496;2024-03-23T13:41:45;98159.53;;;5.73;86.39
54806;BME280;62866;55.776;37.496;2024-03-23T13:44:12;98151.53;;;5.67;87.28
54806;BME280;62866;55.776;37.496;2024-03-23T13:46:40;98157.69;;;5.74;87.09
54806;BME280;62866;55.776;37.496;2024-03-23T13:49:06;98157.13;;;5.85;86.56
54806;BME280;62866;55.776;37.496;2024-03-23T13:51:35;98157.38;;;5.97;87.08
54806;BME280;62866;55.776;37.496;2024-03-23T13:54:00;98161.88;;;6.03;86.60
54806;BME280;62866;55.776;37.496;2024-03-23T13:56:27;98147.66;;;6.11;85.90
54806;BME280;62866;55.776;37.496;2024-03-23T13:58:56;98153.75;;;6.04;86.02
54806;BME280;62866;55.776;37.496;2024-03-23T14:01:21;98151.50;;;6.01;85.90